地図

経路データ

SID SEASON NUMBER BASIN SUBBASIN NAME ISO_TIME NATURE LAT LON WMO_WIND WMO_PRES WMO_AGENCY TRACK_TYPE DIST2LAND LANDFALL IFLAG USA_AGENCY USA_ATCF_ID USA_LAT USA_LON USA_RECORD USA_STATUS USA_WIND USA_PRES USA_SSHS USA_R34_NE USA_R34_SE USA_R34_SW USA_R34_NW USA_R50_NE USA_R50_SE USA_R50_SW USA_R50_NW USA_R64_NE USA_R64_SE USA_R64_SW USA_R64_NW USA_POCI USA_ROCI USA_RMW USA_EYE TOKYO_LAT TOKYO_LON TOKYO_GRADE TOKYO_WIND TOKYO_PRES TOKYO_R50_DIR TOKYO_R50_LONG TOKYO_R50_SHORT TOKYO_R30_DIR TOKYO_R30_LONG TOKYO_R30_SHORT TOKYO_LAND CMA_LAT CMA_LON CMA_CAT CMA_WIND CMA_PRES HKO_LAT HKO_LON HKO_CAT HKO_WIND HKO_PRES NEWDELHI_LAT NEWDELHI_LON NEWDELHI_GRADE NEWDELHI_WIND NEWDELHI_PRES NEWDELHI_CI NEWDELHI_DP NEWDELHI_POCI REUNION_LAT REUNION_LON REUNION_TYPE REUNION_WIND REUNION_PRES REUNION_TNUM REUNION_CI REUNION_RMW REUNION_R34_NE REUNION_R34_SE REUNION_R34_SW REUNION_R34_NW REUNION_R50_NE REUNION_R50_SE REUNION_R50_SW REUNION_R50_NW REUNION_R64_NE REUNION_R64_SE REUNION_R64_SW REUNION_R64_NW BOM_LAT BOM_LON BOM_TYPE BOM_WIND BOM_PRES BOM_TNUM BOM_CI BOM_RMW BOM_R34_NE BOM_R34_SE BOM_R34_SW BOM_R34_NW BOM_R50_NE BOM_R50_SE BOM_R50_SW BOM_R50_NW BOM_R64_NE BOM_R64_SE BOM_R64_SW BOM_R64_NW BOM_ROCI BOM_POCI BOM_EYE BOM_POS_METHOD BOM_PRES_METHOD NADI_LAT NADI_LON NADI_CAT NADI_WIND NADI_PRES WELLINGTON_LAT WELLINGTON_LON WELLINGTON_WIND WELLINGTON_PRES DS824_LAT DS824_LON DS824_STAGE DS824_WIND DS824_PRES TD9636_LAT TD9636_LON TD9636_STAGE TD9636_WIND TD9636_PRES TD9635_LAT TD9635_LON TD9635_WIND TD9635_PRES TD9635_ROCI NEUMANN_LAT NEUMANN_LON NEUMANN_CLASS NEUMANN_WIND NEUMANN_PRES MLC_LAT MLC_LON MLC_CLASS MLC_WIND MLC_PRES USA_GUST BOM_GUST BOM_GUST_PER REUNION_GUST REUNION_GUST_PER USA_SEAHGT USA_SEARAD_NE USA_SEARAD_SE USA_SEARAD_SW USA_SEARAD_NW STORM_SPEED STORM_DIR
1956087S08080 1956 32 SI MM NOT_NAMED 1956-03-26 18:00:00 TS -8.30000 79.7000 main 1594 1594 O________OO___ jtwc_sh SH301956 -8.30000 79.7000 -1 -8.30000 79.7000 TC -8.30000 79.7000 7 18 253
1956087S08080 1956 32 SI MM NOT_NAMED 1956-03-26 21:00:00 TS -8.55393 78.8361 main 1637 1637 P________PP___ SH301956 -8.56052 78.8028 -1 -8.56052 78.8028 TC -8.54074 78.9026 7 17 253
1956087S08080 1956 32 SI MM NOT_NAMED 1956-03-27 00:00:00 TS -8.79148 78.0479 main 1672 1672 O________OP___ jtwc_sh SH301956 -8.80000 78.0000 -1 -8.80000 78.0000 TC -8.77445 78.1436 7 15 252
1956087S08080 1956 32 SI MM NOT_NAMED 1956-03-27 03:00:00 TS -9.00349 77.3992 main 1706 1706 P________PP___ SH301956 -9.00731 77.3674 -1 -9.00731 77.3674 TC -8.99585 77.4628 7 12 250
1956087S08080 1956 32 SI MM NOT_NAMED 1956-03-27 06:00:00 TS -9.20000 76.9000 main 1741 1741 O________OO___ jtwc_sh SH301956 -9.20000 76.9000 -1 -9.20000 76.9000 TC 25 -9.20000 76.9000 1 9 245
1956087S08080 1956 32 SI MM NOT_NAMED 1956-03-27 09:00:00 TS -9.39529 76.5307 main 1773 1773 P________PP___ SH301956 -9.39987 76.5549 -1 -9.39987 76.5549 TC 25 -9.38612 76.4821 1 7 238
1956087S08080 1956 32 SI MM NOT_NAMED 1956-03-27 12:00:00 TS -9.58971 76.2615 main 1801 1801 O________OP___ jtwc_sh SH301956 -9.60000 76.3000 -1 -9.60000 76.3000 TC 25 -9.56912 76.1846 1 6 232
1956087S08080 1956 32 SI MM NOT_NAMED 1956-03-27 15:00:00 TS -9.77915 76.0282 main 1831 1831 P________PP___ SH301956 -9.78493 76.0574 -1 -9.78493 76.0574 TC 25 -9.76760 75.9697 1 6 228
1956087S08080 1956 32 SI MM NOT_NAMED 1956-03-27 18:00:00 TS -10.0000 75.8000 main 1859 1859 O________OO___ jtwc_sh SH301956 -10.0000 75.8000 -1 -10.0000 75.8000 TC 25 -10.0000 75.8000 1 8 229
1956087S08080 1956 32 SI MM NOT_NAMED 1956-03-27 21:00:00 TS -10.2881 75.4344 main 1904 1904 P________PP___ SH301956 -10.2776 75.4052 -1 -10.2776 75.4052 TC 25 -10.3090 75.4929 1 9 226
1956087S08080 1956 32 SI MM NOT_NAMED 1956-03-28 00:00:00 TS -10.6164 75.1462 main 1946 1946 O________OP___ jtwc_sh SH301956 -10.6000 75.1000 -1 -10.6000 75.1000 TC 25 -10.6493 75.2386 1 8 209
1956087S08080 1956 32 SI MM NOT_NAMED 1956-03-28 03:00:00 TS -10.9681 75.0483 main 1992 1989 P________PP___ SH301956 -10.9573 75.0150 -1 -10.9573 75.0150 TC 25 -10.9899 75.1149 1 7 176
1956087S08080 1956 32 SI MM NOT_NAMED 1956-03-28 06:00:00 TS -11.3000 75.2000 main 2017 2017 O________OO___ jtwc_sh SH301956 -11.3000 75.2000 -1 -11.3000 75.2000 TC 25 -11.3000 75.2000 1 8 136
1956087S08080 1956 32 SI MM NOT_NAMED 1956-03-28 09:00:00 TS -11.5710 75.6358 main 2037 2031 P________PP___ SH301956 -11.5801 75.6599 -1 -11.5801 75.6599 TC 25 -11.5529 75.5877 1 12 115
1956087S08080 1956 32 SI MM NOT_NAMED 1956-03-28 12:00:00 TS -11.7895 76.2606 main 2039 2036 O________OP___ jtwc_sh SH301956 -11.8000 76.3000 -1 -11.8000 76.3000 TC 25 -11.7686 76.1816 1 13 107
1956087S08080 1956 32 SI MM NOT_NAMED 1956-03-28 15:00:00 TS -11.9649 76.9183 main 2046 2038 P________PP___ SH301956 -11.9724 76.9351 -1 -11.9724 76.9351 TC 25 -11.9499 76.8848 1 13 103
1956087S08080 1956 32 SI MM NOT_NAMED 1956-03-28 18:00:00 TS -12.1000 77.6000 main 2043 2038 O________OO___ jtwc_sh SH301956 -12.1000 77.6000 -1 -12.1000 77.6000 TC 25 -12.1000 77.6000 1 13 101
1956087S08080 1956 32 SI MM NOT_NAMED 1956-03-28 21:00:00 TS -12.2133 78.2628 main 2043 2041 P________PP___ SH301956 -12.2075 78.2726 -1 -12.2075 78.2726 TC 25 -12.2250 78.2433 1 13 99
1956087S08080 1956 32 SI MM NOT_NAMED 1956-03-29 00:00:00 TS -12.3077 78.8901 main 2047 2045 O________OP___ jtwc_sh SH301956 -12.3000 78.9000 -1 -12.3000 78.9000 TC 25 -12.3230 78.8702 1 12 99
1956087S08080 1956 32 SI MM NOT_NAMED 1956-03-29 03:00:00 TS -12.4031 79.4573 main 2053 2052 P________PP___ SH301956 -12.4000 79.4675 -1 -12.4000 79.4675 TC 25 -12.4095 79.4370 1 10 101
1956087S08080 1956 32 SI MM NOT_NAMED 1956-03-29 06:00:00 TS -12.5000 79.9000 main 2063 2062 O________OO___ jtwc_sh SH301956 -12.5000 79.9000 -1 -12.5000 79.9000 TC 25 -12.5000 79.9000 1 7 106
1956087S08080 1956 32 SI MM NOT_NAMED 1956-03-29 09:00:00 TS -12.6006 80.1661 main 2073 2073 P________PP___ SH301956 -12.5923 80.1451 -1 -12.5923 80.1451 TC 25 -12.6170 80.2080 1 5 117
1956087S08080 1956 32 SI MM NOT_NAMED 1956-03-29 12:00:00 TS -12.7139 80.3376 main 2084 2084 O________OP___ jtwc_sh SH301956 -12.7000 80.3000 -1 -12.7000 80.3000 TC 25 -12.7416 80.4127 1 4 127
1956087S08080 1956 32 SI MM NOT_NAMED 1956-03-29 15:00:00 TS -12.8568 80.5204 main 2106 2106 P________PP___ SH301956 -12.8500 80.5000 -1 -12.8500 80.5000 TC 25 -12.8704 80.5611 1 5 129
1956087S08080 1956 32 SI MM NOT_NAMED 1956-03-29 18:00:00 TS -13.0000 80.7000 main 2117 2117 O________OO___ jtwc_sh SH301956 -13.0000 80.7000 -1 -13.0000 80.7000 TC 25 -13.0000 80.7000 1 4 124
1956087S08080 1956 32 SI MM NOT_NAMED 1956-03-29 21:00:00 TS -13.1042 80.9001 main 2128 2128 P________PP___ SH301956 -13.1000 80.9000 -1 -13.1000 80.9000 TC 30 -13.1128 80.9001 1 4 118
1956087S08080 1956 32 SI MM NOT_NAMED 1956-03-30 00:00:00 TS -13.2091 81.1001 main 2140 2140 O________OP___ jtwc_sh SH301956 -13.2000 81.1000 -1 -13.2000 81.1000 TC 35 -13.2274 81.1002 1 5 121
1956087S08080 1956 32 SI MM NOT_NAMED 1956-03-30 03:00:00 TS -13.3411 81.3001 main 2152 2152 P________PP___ SH301956 -13.3350 81.3000 -1 -13.3350 81.3000 TC 50 -13.3534 81.3002 1 5 127
1956087S08080 1956 32 SI MM NOT_NAMED 1956-03-30 06:00:00 TS -13.5000 81.5000 main 2175 2175 O________OO___ jtwc_sh SH301956 -13.5000 81.5000 -1 -13.5000 81.5000 TC 65 -13.5000 81.5000 4 5 132
1956087S08080 1956 32 SI MM NOT_NAMED 1956-03-30 09:00:00 TS -13.6878 81.7014 main 2199 2199 P________PP___ SH301956 -13.6925 81.7000 -1 -13.6925 81.7000 TC 65 -13.6784 81.7040 4 6 135
1956087S08080 1956 32 SI MM NOT_NAMED 1956-03-30 12:00:00 TS -13.8925 81.9025 main 2222 2222 O________OP___ jtwc_sh SH301956 -13.9000 81.9000 -1 -13.9000 81.9000 TC 65 -13.8775 81.9075 4 6 136
1956087S08080 1956 32 SI MM NOT_NAMED 1956-03-30 15:00:00 TS -14.0959 82.1074 main 2246 2246 P________PP___ SH301956 -14.1000 82.1075 -1 -14.1000 82.1075 TC 65 -14.0878 82.1072 4 6 137
1956087S08080 1956 32 SI MM NOT_NAMED 1956-03-30 18:00:00 TS -14.3000 82.3000 main 2270 2270 O________OO___ jtwc_sh SH301956 -14.3000 82.3000 -1 -14.3000 82.3000 TC 65 -14.3000 82.3000 4 5 139
1956087S08080 1956 32 SI MM NOT_NAMED 1956-03-30 21:00:00 TS -14.4823 82.4556 main 2295 2295 P________PP___ SH301956 -14.5000 82.4501 -1 -14.5000 82.4501 TC 65 -14.4471 82.4666 4 5 141
1956087S08080 1956 32 SI MM NOT_NAMED 1956-03-31 00:00:00 TS -14.6674 82.6095 main 2308 2298 O________OP___ jtwc_sh SH301956 -14.7000 82.6000 -1 -14.7000 82.6000 TC 65 -14.6023 82.6286 4 5 138
1956087S08080 1956 32 SI MM NOT_NAMED 1956-03-31 03:00:00 TS -14.8438 82.7905 main 2298 2295 P________PP___ SH301956 -14.8625 82.7852 -1 -14.8625 82.7852 TC 65 -14.8064 82.8012 4 6 139
1956087S08080 1956 32 SI MM NOT_NAMED 1956-03-31 06:00:00 TS -15.1000 83.0000 main 2302 2301 O________OO___ jtwc_sh SH301956 -15.1000 83.0000 -1 -15.1000 83.0000 TC 65 -15.1000 83.0000 4 8 147
1956087S08080 1956 32 SI MM NOT_NAMED 1956-03-31 09:00:00 TS -15.5052 83.2414 main 2314 2306 P________PP___ SH301956 -15.4900 83.2351 -1 -15.4900 83.2351 TC 50 -15.5358 83.2539 4 10 152
1956087S08080 1956 32 SI MM NOT_NAMED 1956-03-31 12:00:00 TS -16.0201 83.5114 main 2327 2326 O________OP___ jtwc_sh SH301956 -16.0000 83.5000 -1 -16.0000 83.5000 TC 35 -16.0603 83.5343 4 12 154
1956087S08080 1956 32 SI MM NOT_NAMED 1956-03-31 15:00:00 TS -16.6049 83.8075 main 2349 2349 P________PP___ SH301956 -16.5925 83.7999 -1 -16.5925 83.7999 TC 30 -16.6296 83.8227 4 13 154
1956087S08080 1956 32 SI MM NOT_NAMED 1956-03-31 18:00:00 TS -17.2000 84.1000 main 2373 2373 O________OO___ jtwc_sh SH301956 -17.2000 84.1000 -1 -17.2000 84.1000 TC 25 -17.2000 84.1000 7 12 155
1956087S08080 1956 32 SI MM NOT_NAMED 1956-03-31 21:00:00 TS -17.7177 84.3607 main 2392 2392 P________PP___ SH301956 -17.7150 84.3652 -1 -17.7150 84.3652 TC 25 -17.7233 84.3518 7 11 155
1956087S08080 1956 32 SI MM NOT_NAMED 1956-04-01 00:00:00 TS -18.2125 84.5959 main 2419 2419 O________OP___ jtwc_sh SH301956 -18.2000 84.6000 -1 -18.2000 84.6000 TC 25 -18.2374 84.5877 7 11 157
1956087S08080 1956 32 SI MM NOT_NAMED 1956-04-01 03:00:00 TS -18.7209 84.8116 main 2447 2447 P________PP___ SH301956 -18.7150 84.8151 -1 -18.7150 84.8151 TC 25 -18.7327 84.8048 7 11 159
1956087S08080 1956 32 SI MM NOT_NAMED 1956-04-01 06:00:00 TS -19.2000 85.0000 main 2476 2476 O________OO___ jtwc_sh SH301956 -19.2000 85.0000 -1 -19.2000 85.0000 TC 25 -19.2000 85.0000 7 10 160
1956087S08080 1956 32 SI MM NOT_NAMED 1956-04-01 09:00:00 TS -19.6181 85.1612 main 2498 2498 P________PP___ SH301956 -19.6150 85.1577 -1 -19.6150 85.1577 TC 25 -19.6245 85.1682 7 9 160
1956087S08080 1956 32 SI MM NOT_NAMED 1956-04-01 12:00:00 TS -20.0074 85.3053 main 2527 2527 O________OP___ jtwc_sh SH301956 -20.0000 85.3000 -1 -20.0000 85.3000 TC 25 -20.0222 85.3160 7 8 161
1956087S08080 1956 32 SI MM NOT_NAMED 1956-04-01 15:00:00 TS -20.4030 85.4520 main 2550 2550 P________PP___ SH301956 -20.4000 85.4501 -1 -20.4000 85.4501 TC 25 -20.4089 85.4557 7 8 161
1956087S08080 1956 32 SI MM NOT_NAMED 1956-04-01 18:00:00 TS -20.8000 85.6000 main 2580 2580 O________OO___ jtwc_sh SH301956 -20.8000 85.6000 -1 -20.8000 85.6000 TC 25 -20.8000 85.6000 7 8 161
1956087S08080 1956 32 SI MM NOT_NAMED 1956-04-01 21:00:00 TS -21.1975 85.7481 main 2610 2604 P________PP___ SH301956 -21.1925 85.7427 -1 -21.1925 85.7427 TC 25 -21.2077 85.7589 7 9 160
1956087S08080 1956 32 SI MM NOT_NAMED 1956-04-02 00:00:00 TS -21.6101 85.9104 main 2635 2635 O________OP___ jtwc_sh SH301956 -21.6000 85.9000 -1 -21.6000 85.9000 TC 25 -21.6303 85.9312 7 9 159
1956087S08080 1956 32 SI MM NOT_NAMED 1956-04-02 03:00:00 TS -22.0476 86.0974 main 2661 2661 P________PP___ SH301956 -22.0401 86.0897 -1 -22.0401 86.0897 TC 25 -22.0628 86.1129 7 10 158
1956087S08080 1956 32 SI MM NOT_NAMED 1956-04-02 06:00:00 TS -22.5000 86.3000 main 2681 O________OO___ jtwc_sh SH301956 -22.5000 86.3000 -1 -22.5000 86.3000 TC 25 -22.5000 86.3000 7 10 158

IBTrACS Databaseについて

本データベースは、米国NOAAが公開する1842年以降の世界の熱帯低気圧のベストトラックデータアーカイブInternational Best Track Archive for Climate Stewardship (IBTrACS)を、ウェブで閲覧しやすい形式に変換したものです。

最終更新日:2021-10-25